createdAt,value
2023-04-15T00:07:31.330Z,6.99
2023-04-15T00:12:42.390Z,6.87
2023-04-15T00:36:38.583Z,7.23
2023-04-15T00:41:43.294Z,7.18
2023-04-15T00:46:42.271Z,7.05
2023-04-15T00:51:52.547Z,7.03
2023-04-15T00:56:50.020Z,7.13
2023-04-15T01:01:46.996Z,7.10
2023-04-15T01:06:43.444Z,7.12
2023-04-15T01:11:49.405Z,7.32
2023-04-15T01:22:45.757Z,7.14
2023-04-15T01:27:42.506Z,7.02
2023-04-15T01:32:39.085Z,6.79
2023-04-15T01:37:36.728Z,7.03
2023-04-15T01:42:33.679Z,7.03
2023-04-15T01:47:30.343Z,6.92
2023-04-15T01:52:26.880Z,7.07
2023-04-15T01:57:23.262Z,6.99
2023-04-15T02:02:19.796Z,6.92
2023-04-15T02:07:16.466Z,7.18
2023-04-15T02:12:13.402Z,6.98
2023-04-15T02:17:09.819Z,6.91
2023-04-15T02:22:09.094Z,7.06
2023-04-15T02:27:06.028Z,7.07
2023-04-15T02:32:02.575Z,7.10
2023-04-15T02:36:59.079Z,7.06
2023-04-15T02:41:55.604Z,6.90
2023-04-15T02:46:53.599Z,7.11
2023-04-15T02:51:51.120Z,7.11
2023-04-15T02:56:47.783Z,7.04
2023-04-15T03:01:44.453Z,7.09
2023-04-15T03:06:40.869Z,7.11
2023-04-15T03:11:40.621Z,7.14
2023-04-15T03:16:37.085Z,7.17
2023-04-15T03:21:33.521Z,7.11
2023-04-15T03:26:31.599Z,7.12
2023-04-15T03:31:28.077Z,7.24
2023-04-15T03:36:24.626Z,7.07
2023-04-15T03:41:24.306Z,7.12
2023-04-15T03:46:21.370Z,7.05
2023-04-15T03:51:21.926Z,7.11
2023-04-15T04:14:35.198Z,7.13
2023-04-15T04:19:31.654Z,7.09
2023-04-15T04:24:28.180Z,7.02
2023-04-15T04:29:31.139Z,7.04
2023-04-15T04:34:29.067Z,7.11
2023-04-15T04:39:40.086Z,7.24
2023-04-15T04:50:03.493Z,7.21
2023-04-15T04:54:59.903Z,7.16
2023-04-15T04:59:56.560Z,7.18
2023-04-15T05:04:54.461Z,7.02
2023-04-15T05:09:50.909Z,7.12
2023-04-15T05:14:47.463Z,6.99
2023-04-15T05:19:43.895Z,7.20
2023-04-15T06:07:37.519Z,7.42
2023-04-15T06:12:34.127Z,7.35
2023-04-15T06:35:04.898Z,7.62
2023-04-15T06:40:01.384Z,7.41
2023-04-15T06:44:57.974Z,7.70
2023-04-15T06:50:21.913Z,7.91
2023-04-15T06:55:18.421Z,7.83
2023-04-15T07:00:15.648Z,7.89
2023-04-15T07:05:12.698Z,7.70
2023-04-15T07:10:09.931Z,7.76
2023-04-15T07:15:07.033Z,7.52
2023-04-15T07:20:04.824Z,7.79
2023-04-15T07:25:01.345Z,7.66
2023-04-15T07:29:57.843Z,7.75
2023-04-15T07:34:54.434Z,7.93
2023-04-15T07:40:42.314Z,7.97
2023-04-15T07:45:38.715Z,7.94
2023-04-15T07:50:35.496Z,8.16
2023-04-15T07:55:31.943Z,8.29
2023-04-15T08:00:28.412Z,8.19
2023-04-15T08:05:25.668Z,8.47
2023-04-15T08:10:22.501Z,8.39
2023-04-15T08:15:19.003Z,8.41
2023-04-15T08:20:15.434Z,8.63
2023-04-15T08:25:11.823Z,8.43
2023-04-15T08:30:08.963Z,8.64
2023-04-15T08:35:06.274Z,8.47
2023-04-15T08:40:02.797Z,8.78
2023-04-15T08:45:01.578Z,8.95
2023-04-15T08:49:58.550Z,9.02
2023-04-15T08:55:00.801Z,8.71
2023-04-15T08:59:57.755Z,8.98
2023-04-15T09:04:54.172Z,9.05
2023-04-15T09:09:51.568Z,9.29
2023-04-15T09:14:49.351Z,9.10
2023-04-15T09:19:45.961Z,9.34
2023-04-15T09:24:43.372Z,9.63
2023-04-15T09:29:41.743Z,9.93
2023-04-15T09:34:38.336Z,10.13
2023-04-15T09:39:51.910Z,9.94
2023-04-15T09:44:48.383Z,10.31
2023-04-15T09:49:56.518Z,10.52
2023-04-15T09:54:56.005Z,10.84
2023-04-15T09:59:52.721Z,11.49
2023-04-15T10:04:49.686Z,10.47
2023-04-15T10:09:46.907Z,10.52
2023-04-15T10:14:44.458Z,11.36
2023-04-15T10:19:41.707Z,11.35
2023-04-15T10:24:38.968Z,12.27
2023-04-15T10:29:35.840Z,11.86
2023-04-15T10:34:32.684Z,12.03
2023-04-15T10:39:41.149Z,12.68
2023-04-15T10:44:38.955Z,12.53
2023-04-15T10:49:42.605Z,13.98
2023-04-15T10:54:39.558Z,16.12
2023-04-15T10:59:37.756Z,15.93
2023-04-15T11:04:53.244Z,14.59
2023-04-15T11:09:49.802Z,14.15
2023-04-15T11:14:46.617Z,13.81
2023-04-15T11:19:43.650Z,13.99
2023-04-15T11:24:52.041Z,13.47
2023-04-15T11:29:48.615Z,13.29
2023-04-15T11:34:46.577Z,13.43
2023-04-15T11:39:43.020Z,13.35
2023-04-15T11:44:39.440Z,13.19
2023-04-15T11:49:40.071Z,13.32
2023-04-15T11:54:37.438Z,15.31
2023-04-15T11:59:46.001Z,14.36
2023-04-15T12:04:43.026Z,13.86
2023-04-15T12:09:40.064Z,13.92
2023-04-15T12:14:38.174Z,13.66
2023-04-15T12:19:41.599Z,13.20
2023-04-15T12:24:38.599Z,13.34
2023-04-15T12:29:36.938Z,13.44
2023-04-15T12:34:45.250Z,13.42
2023-04-15T12:39:43.431Z,13.32
2023-04-15T12:44:40.376Z,13.23
2023-04-15T12:49:37.536Z,13.29
2023-04-15T12:54:34.697Z,13.11
2023-04-15T12:59:31.226Z,13.40
2023-04-15T13:04:30.619Z,13.40
2023-04-15T13:09:27.261Z,13.68
2023-04-15T13:14:23.719Z,13.67
2023-04-15T13:19:20.137Z,13.45
2023-04-15T13:24:16.589Z,13.81
2023-04-15T13:29:14.020Z,14.06
2023-04-15T13:34:10.561Z,14.39
2023-04-15T13:39:07.045Z,14.32
2023-04-15T13:44:03.583Z,14.25
2023-04-15T13:49:00.162Z,14.80
2023-04-15T13:53:58.127Z,14.78
2023-04-15T13:58:58.692Z,16.33
2023-04-15T14:03:55.768Z,18.30
2023-04-15T14:08:53.082Z,18.33
2023-04-15T14:13:49.625Z,18.92
2023-04-15T14:18:48.240Z,18.41
2023-04-15T14:23:44.720Z,17.78
2023-04-15T14:28:41.142Z,18.07
2023-04-15T14:33:37.604Z,17.80
2023-04-15T14:38:38.313Z,18.57
2023-04-15T14:43:35.275Z,18.06
2023-04-15T14:48:32.065Z,17.58
2023-04-15T14:53:28.589Z,16.45
2023-04-15T14:58:25.513Z,15.91
2023-04-15T15:03:22.212Z,16.28
2023-04-15T15:08:18.765Z,16.16
2023-04-15T15:13:15.692Z,16.78
2023-04-15T15:18:12.322Z,15.83
2023-04-15T15:23:08.855Z,15.61
2023-04-15T15:28:05.824Z,15.26
2023-04-15T15:33:02.448Z,15.47
2023-04-15T15:38:00.515Z,14.99
2023-04-15T15:42:56.985Z,14.47
2023-04-15T15:47:53.571Z,14.25
2023-04-15T15:52:50.195Z,13.83
2023-04-15T15:57:46.720Z,13.96
2023-04-15T16:07:42.993Z,13.19
2023-04-15T16:12:39.732Z,13.19
2023-04-15T16:17:36.317Z,13.06
2023-04-15T16:22:34.961Z,12.90
2023-04-15T16:27:31.520Z,12.79
2023-04-15T16:32:28.096Z,12.68
2023-04-15T16:37:24.541Z,12.53
2023-04-15T16:42:21.034Z,12.39
2023-04-15T16:47:17.573Z,12.55
2023-04-15T16:52:14.144Z,12.39
2023-04-15T16:57:10.586Z,12.49
2023-04-15T17:02:11.339Z,11.95
2023-04-15T17:07:08.934Z,11.92
2023-04-15T17:12:06.124Z,11.81
2023-04-15T17:17:02.527Z,11.66
2023-04-15T17:21:59.545Z,11.56
2023-04-15T17:26:56.767Z,11.63
2023-04-15T17:31:54.642Z,11.87
2023-04-15T17:36:53.418Z,11.82
2023-04-15T17:41:49.865Z,11.91
2023-04-15T17:46:47.157Z,11.77
2023-04-15T17:51:44.881Z,11.20
2023-04-15T17:56:41.615Z,11.33
2023-04-15T18:01:38.395Z,11.18
2023-04-15T18:06:38.725Z,10.99
2023-04-15T18:11:35.720Z,10.90
2023-04-15T18:16:32.533Z,10.88
2023-04-15T18:21:29.182Z,10.89
2023-04-15T18:26:25.958Z,10.47
2023-04-15T18:31:22.745Z,10.56
2023-04-15T18:36:19.381Z,10.52
2023-04-15T18:41:18.904Z,10.67
2023-04-15T18:46:16.744Z,10.77
2023-04-15T18:51:13.791Z,10.42
2023-04-15T18:56:10.522Z,10.39
2023-04-15T19:01:07.138Z,10.02
2023-04-15T19:06:03.964Z,9.96
2023-04-15T19:11:00.884Z,10.00
2023-04-15T19:15:57.537Z,9.84
2023-04-15T19:20:55.983Z,9.81
2023-04-15T19:25:52.482Z,9.89
2023-04-15T19:30:49.181Z,9.82
2023-04-15T19:35:49.835Z,9.92
2023-04-15T19:40:46.920Z,9.92
2023-04-15T19:45:46.225Z,9.68
2023-04-15T19:50:43.138Z,9.76
2023-04-15T19:55:40.005Z,9.76
2023-04-15T20:00:37.002Z,9.50
2023-04-15T20:05:33.771Z,9.52
2023-04-15T20:10:31.989Z,9.66
2023-04-15T20:15:28.893Z,9.54
2023-04-15T20:20:25.433Z,9.52
2023-04-15T20:25:22.101Z,9.52
2023-04-15T20:30:19.211Z,9.10
2023-04-15T20:35:16.238Z,9.20
2023-04-15T20:40:15.583Z,9.23
2023-04-15T20:45:12.303Z,9.37
2023-04-15T20:50:10.001Z,9.08
2023-04-15T20:55:09.982Z,9.02
2023-04-15T21:00:09.280Z,8.80
2023-04-15T21:05:06.238Z,8.89
2023-04-15T21:10:02.885Z,8.88
2023-04-15T21:14:59.334Z,8.74
2023-04-15T21:19:56.052Z,8.66
2023-04-15T21:24:52.473Z,8.66
2023-04-15T21:29:49.708Z,8.48
2023-04-15T21:34:47.200Z,8.46
2023-04-15T21:39:45.058Z,8.45
2023-04-15T21:44:42.767Z,8.62
2023-04-15T21:49:40.096Z,8.61
2023-04-15T21:54:38.015Z,8.35
2023-04-15T21:59:34.519Z,8.31
2023-04-15T22:04:30.996Z,8.41
2023-04-15T22:09:28.150Z,8.32
2023-04-15T22:14:25.337Z,8.31
2023-04-15T22:19:22.223Z,8.48
2023-04-15T22:24:32.973Z,8.45
2023-04-15T22:29:36.549Z,8.40
2023-04-15T22:34:33.993Z,8.40
2023-04-15T22:39:30.420Z,8.07
2023-04-15T22:44:26.816Z,8.28
2023-04-15T22:49:23.249Z,8.26
2023-04-15T22:54:20.806Z,8.25
2023-04-15T22:59:17.449Z,8.31
2023-04-15T23:04:23.638Z,7.90
2023-04-15T23:09:23.715Z,8.13
2023-04-15T23:14:20.322Z,8.02
2023-04-15T23:19:26.393Z,7.95
2023-04-15T23:24:23.064Z,7.90
2023-04-15T23:29:46.664Z,8.01
2023-04-15T23:34:52.368Z,7.82
2023-04-15T23:40:04.197Z,7.80
2023-04-15T23:51:27.095Z,7.61
2023-04-15T23:56:23.519Z,7.38
